sensor_id;sensor_type;location;lat;lon;timestamp;P1;durP1;ratioP1;P2;durP2;ratioP2
58774;SDS011;44545;47.480;19.024;2024-02-23T04:23:38;1.45;;;1.30;;
58774;SDS011;44545;47.480;19.024;2024-02-23T04:26:41;2.45;;;1.65;;
58774;SDS011;44545;47.480;19.024;2024-02-23T04:29:43;1.90;;;1.02;;
58774;SDS011;44545;47.480;19.024;2024-02-23T04:32:46;0.95;;;0.77;;
58774;SDS011;44545;47.480;19.024;2024-02-23T04:35:48;2.80;;;1.12;;
58774;SDS011;44545;47.480;19.024;2024-02-23T04:38:50;1.80;;;1.20;;
58774;SDS011;44545;47.480;19.024;2024-02-23T04:41:53;1.60;;;1.10;;
58774;SDS011;44545;47.480;19.024;2024-02-23T04:44:56;2.00;;;1.02;;
58774;SDS011;44545;47.480;19.024;2024-02-23T04:47:58;0.57;;;0.50;;
58774;SDS011;44545;47.480;19.024;2024-02-23T04:51:00;3.50;;;1.25;;
58774;SDS011;44545;47.480;19.024;2024-02-23T04:54:03;2.58;;;0.90;;
58774;SDS011;44545;47.480;19.024;2024-02-23T04:57:05;1.35;;;1.23;;
58774;SDS011;44545;47.480;19.024;2024-02-23T05:00:08;2.10;;;0.70;;
58774;SDS011;44545;47.480;19.024;2024-02-23T05:03:10;1.40;;;1.02;;
58774;SDS011;44545;47.480;19.024;2024-02-23T05:06:14;1.05;;;0.70;;
58774;SDS011;44545;47.480;19.024;2024-02-23T05:09:16;0.98;;;0.52;;
58774;SDS011;44545;47.480;19.024;2024-02-23T05:12:18;0.50;;;0.50;;
58774;SDS011;44545;47.480;19.024;2024-02-23T05:15:21;1.67;;;1.48;;
58774;SDS011;44545;47.480;19.024;2024-02-23T05:18:23;2.10;;;1.30;;
58774;SDS011;44545;47.480;19.024;2024-02-23T05:21:25;0.90;;;0.80;;
58774;SDS011;44545;47.480;19.024;2024-02-23T05:24:28;2.05;;;1.10;;
58774;SDS011;44545;47.480;19.024;2024-02-23T05:27:30;1.55;;;1.00;;
58774;SDS011;44545;47.480;19.024;2024-02-23T05:30:33;1.87;;;0.65;;
58774;SDS011;44545;47.480;19.024;2024-02-23T05:33:35;1.30;;;0.73;;
58774;SDS011;44545;47.480;19.024;2024-02-23T05:36:38;1.20;;;0.47;;
58774;SDS011;44545;47.480;19.024;2024-02-23T05:39:40;3.17;;;0.70;;
58774;SDS011;44545;47.480;19.024;2024-02-23T05:42:45;1.95;;;1.33;;
58774;SDS011;44545;47.480;19.024;2024-02-23T05:45:47;1.92;;;1.55;;
58774;SDS011;44545;47.480;19.024;2024-02-23T05:48:49;0.70;;;0.60;;
58774;SDS011;44545;47.480;19.024;2024-02-23T05:51:52;2.35;;;1.12;;
58774;SDS011;44545;47.480;19.024;2024-02-23T05:54:54;1.48;;;0.80;;
58774;SDS011;44545;47.480;19.024;2024-02-23T05:57:58;2.55;;;1.20;;
58774;SDS011;44545;47.480;19.024;2024-02-23T06:01:01;2.20;;;1.25;;
58774;SDS011;44545;47.480;19.024;2024-02-23T06:04:04;1.08;;;0.73;;
58774;SDS011;44545;47.480;19.024;2024-02-23T06:07:07;0.60;;;0.60;;
58774;SDS011;44545;47.480;19.024;2024-02-23T06:10:11;3.00;;;1.60;;
58774;SDS011;44545;47.480;19.024;2024-02-23T06:13:13;0.80;;;0.70;;
58774;SDS011;44545;47.480;19.024;2024-02-23T06:16:15;0.73;;;0.55;;
58774;SDS011;44545;47.480;19.024;2024-02-23T06:19:18;0.62;;;0.60;;
58774;SDS011;44545;47.480;19.024;2024-02-23T06:22:21;4.00;;;1.00;;
58774;SDS011;44545;47.480;19.024;2024-02-23T06:25:24;2.08;;;0.95;;
58774;SDS011;44545;47.480;19.024;2024-02-23T06:28:26;0.80;;;0.43;;
58774;SDS011;44545;47.480;19.024;2024-02-23T06:31:28;1.23;;;0.85;;
58774;SDS011;44545;47.480;19.024;2024-02-23T06:34:31;1.40;;;1.12;;
58774;SDS011;44545;47.480;19.024;2024-02-23T06:37:33;1.10;;;1.00;;
58774;SDS011;44545;47.480;19.024;2024-02-23T06:40:36;2.65;;;1.90;;
58774;SDS011;44545;47.480;19.024;2024-02-23T06:43:52;1.08;;;0.85;;
58774;SDS011;44545;47.480;19.024;2024-02-23T06:46:55;1.73;;;1.62;;
58774;SDS011;44545;47.480;19.024;2024-02-23T06:49:57;1.45;;;1.30;;
58774;SDS011;44545;47.480;19.024;2024-02-23T06:53:00;3.12;;;1.60;;
58774;SDS011;44545;47.480;19.024;2024-02-23T06:56:02;1.08;;;0.82;;
58774;SDS011;44545;47.480;19.024;2024-02-23T06:59:06;1.77;;;1.00;;
58774;SDS011;44545;47.480;19.024;2024-02-23T07:02:08;3.12;;;1.27;;
58774;SDS011;44545;47.480;19.024;2024-02-23T07:05:11;14.45;;;1.62;;
58774;SDS011;44545;47.480;19.024;2024-02-23T07:08:13;1.20;;;0.65;;
58774;SDS011;44545;47.480;19.024;2024-02-23T07:11:16;1.33;;;0.77;;
58774;SDS011;44545;47.480;19.024;2024-02-23T07:14:19;2.28;;;1.98;;
58774;SDS011;44545;47.480;19.024;2024-02-23T07:17:24;4.12;;;1.83;;
58774;SDS011;44545;47.480;19.024;2024-02-23T07:20:26;1.85;;;1.25;;
58774;SDS011;44545;47.480;19.024;2024-02-23T07:23:29;7.55;;;1.23;;
58774;SDS011;44545;47.480;19.024;2024-02-23T07:26:32;1.65;;;1.08;;
58774;SDS011;44545;47.480;19.024;2024-02-23T07:29:34;2.83;;;1.23;;
58774;SDS011;44545;47.480;19.024;2024-02-23T07:32:38;2.65;;;1.25;;
58774;SDS011;44545;47.480;19.024;2024-02-23T07:35:41;2.90;;;1.60;;
58774;SDS011;44545;47.480;19.024;2024-02-23T07:38:45;2.42;;;1.45;;
58774;SDS011;44545;47.480;19.024;2024-02-23T07:41:47;2.30;;;1.37;;
58774;SDS011;44545;47.480;19.024;2024-02-23T07:44:50;3.42;;;1.62;;
58774;SDS011;44545;47.480;19.024;2024-02-23T07:47:52;1.12;;;0.93;;
58774;SDS011;44545;47.480;19.024;2024-02-23T07:50:54;1.83;;;1.52;;
58774;SDS011;44545;47.480;19.024;2024-02-23T07:53:57;4.90;;;1.85;;
58774;SDS011;44545;47.480;19.024;2024-02-23T07:56:59;2.70;;;1.35;;
58774;SDS011;44545;47.480;19.024;2024-02-23T08:00:02;2.55;;;1.75;;
58774;SDS011;44545;47.480;19.024;2024-02-23T08:03:12;1.70;;;0.77;;
58774;SDS011;44545;47.480;19.024;2024-02-23T08:06:15;2.92;;;1.80;;
58774;SDS011;44545;47.480;19.024;2024-02-23T08:09:17;2.35;;;1.75;;
58774;SDS011;44545;47.480;19.024;2024-02-23T08:12:20;2.12;;;1.37;;
58774;SDS011;44545;47.480;19.024;2024-02-23T08:15:23;2.30;;;2.10;;
58774;SDS011;44545;47.480;19.024;2024-02-23T08:18:26;2.60;;;1.50;;
58774;SDS011;44545;47.480;19.024;2024-02-23T08:21:29;3.35;;;1.67;;
58774;SDS011;44545;47.480;19.024;2024-02-23T08:24:31;2.62;;;1.98;;
58774;SDS011;44545;47.480;19.024;2024-02-23T08:27:34;1.30;;;1.12;;
58774;SDS011;44545;47.480;19.024;2024-02-23T08:30:37;2.62;;;1.60;;
58774;SDS011;44545;47.480;19.024;2024-02-23T08:33:39;5.57;;;1.50;;
58774;SDS011;44545;47.480;19.024;2024-02-23T08:36:42;2.58;;;1.25;;
58774;SDS011;44545;47.480;19.024;2024-02-23T08:39:44;7.60;;;3.03;;
58774;SDS011;44545;47.480;19.024;2024-02-23T08:42:46;5.07;;;2.70;;
58774;SDS011;44545;47.480;19.024;2024-02-23T08:45:49;2.40;;;1.83;;
58774;SDS011;44545;47.480;19.024;2024-02-23T08:48:51;5.47;;;2.05;;
58774;SDS011;44545;47.480;19.024;2024-02-23T08:51:54;4.07;;;2.00;;
58774;SDS011;44545;47.480;19.024;2024-02-23T08:54:57;2.55;;;1.62;;
58774;SDS011;44545;47.480;19.024;2024-02-23T08:57:59;4.25;;;2.15;;
58774;SDS011;44545;47.480;19.024;2024-02-23T09:01:01;1.67;;;1.55;;
58774;SDS011;44545;47.480;19.024;2024-02-23T09:04:06;1.33;;;1.10;;
58774;SDS011;44545;47.480;19.024;2024-02-23T09:07:08;3.80;;;2.40;;
58774;SDS011;44545;47.480;19.024;2024-02-23T09:10:11;4.43;;;1.95;;
58774;SDS011;44545;47.480;19.024;2024-02-23T09:13:14;4.65;;;1.62;;
58774;SDS011;44545;47.480;19.024;2024-02-23T09:16:17;0.93;;;0.70;;
58774;SDS011;44545;47.480;19.024;2024-02-23T09:19:21;4.85;;;1.27;;
58774;SDS011;44545;47.480;19.024;2024-02-23T09:22:23;3.25;;;2.12;;
58774;SDS011;44545;47.480;19.024;2024-02-23T09:25:26;7.97;;;1.85;;
58774;SDS011;44545;47.480;19.024;2024-02-23T09:28:29;2.58;;;1.40;;
58774;SDS011;44545;47.480;19.024;2024-02-23T09:31:32;2.87;;;2.03;;
58774;SDS011;44545;47.480;19.024;2024-02-23T09:34:34;2.20;;;1.37;;
58774;SDS011;44545;47.480;19.024;2024-02-23T09:37:37;5.18;;;2.03;;
58774;SDS011;44545;47.480;19.024;2024-02-23T09:40:39;2.40;;;1.73;;
58774;SDS011;44545;47.480;19.024;2024-02-23T09:43:42;1.65;;;1.30;;
58774;SDS011;44545;47.480;19.024;2024-02-23T09:46:46;3.78;;;1.77;;
58774;SDS011;44545;47.480;19.024;2024-02-23T09:49:49;1.15;;;1.02;;
58774;SDS011;44545;47.480;19.024;2024-02-23T09:52:53;3.45;;;1.33;;
58774;SDS011;44545;47.480;19.024;2024-02-23T09:55:59;3.10;;;2.15;;
58774;SDS011;44545;47.480;19.024;2024-02-23T09:59:02;2.10;;;1.62;;
58774;SDS011;44545;47.480;19.024;2024-02-23T10:02:10;2.12;;;1.20;;
58774;SDS011;44545;47.480;19.024;2024-02-23T10:05:17;3.03;;;1.85;;
58774;SDS011;44545;47.480;19.024;2024-02-23T10:08:21;3.47;;;1.00;;
58774;SDS011;44545;47.480;19.024;2024-02-23T10:11:24;3.87;;;1.70;;
58774;SDS011;44545;47.480;19.024;2024-02-23T10:14:27;4.68;;;2.55;;
58774;SDS011;44545;47.480;19.024;2024-02-23T10:17:31;2.47;;;1.62;;
58774;SDS011;44545;47.480;19.024;2024-02-23T10:20:37;1.98;;;1.33;;
58774;SDS011;44545;47.480;19.024;2024-02-23T10:23:44;3.30;;;2.33;;
58774;SDS011;44545;47.480;19.024;2024-02-23T10:26:47;2.17;;;1.48;;
58774;SDS011;44545;47.480;19.024;2024-02-23T10:29:50;2.70;;;1.33;;
58774;SDS011;44545;47.480;19.024;2024-02-23T10:32:53;2.83;;;2.15;;
58774;SDS011;44545;47.480;19.024;2024-02-23T10:35:58;3.17;;;2.08;;
58774;SDS011;44545;47.480;19.024;2024-02-23T10:39:03;2.87;;;1.87;;
58774;SDS011;44545;47.480;19.024;2024-02-23T10:42:08;3.35;;;1.65;;
58774;SDS011;44545;47.480;19.024;2024-02-23T10:45:14;5.60;;;1.85;;
58774;SDS011;44545;47.480;19.024;2024-02-23T10:48:18;4.30;;;1.83;;
58774;SDS011;44545;47.480;19.024;2024-02-23T10:51:21;4.03;;;3.67;;
58774;SDS011;44545;47.480;19.024;2024-02-23T10:54:25;3.22;;;1.98;;
58774;SDS011;44545;47.480;19.024;2024-02-23T10:57:28;4.12;;;2.17;;
58774;SDS011;44545;47.480;19.024;2024-02-23T11:00:31;4.05;;;2.37;;
58774;SDS011;44545;47.480;19.024;2024-02-23T11:03:33;3.47;;;2.20;;
58774;SDS011;44545;47.480;19.024;2024-02-23T11:06:38;9.90;;;2.03;;
58774;SDS011;44545;47.480;19.024;2024-02-23T11:09:41;2.87;;;1.70;;
58774;SDS011;44545;47.480;19.024;2024-02-23T11:12:43;3.78;;;2.47;;
58774;SDS011;44545;47.480;19.024;2024-02-23T11:15:46;1.80;;;1.48;;
58774;SDS011;44545;47.480;19.024;2024-02-23T11:18:49;3.10;;;1.52;;
58774;SDS011;44545;47.480;19.024;2024-02-23T11:21:52;2.15;;;0.90;;
58774;SDS011;44545;47.480;19.024;2024-02-23T11:24:59;3.62;;;1.92;;
58774;SDS011;44545;47.480;19.024;2024-02-23T11:28:05;4.30;;;2.00;;
58774;SDS011;44545;47.480;19.024;2024-02-23T11:31:12;2.00;;;1.62;;
58774;SDS011;44545;47.480;19.024;2024-02-23T11:34:22;2.80;;;1.50;;
58774;SDS011;44545;47.480;19.024;2024-02-23T11:37:28;3.22;;;2.45;;
58774;SDS011;44545;47.480;19.024;2024-02-23T11:40:31;2.10;;;1.52;;
58774;SDS011;44545;47.480;19.024;2024-02-23T11:43:34;4.93;;;2.05;;
58774;SDS011;44545;47.480;19.024;2024-02-23T11:46:37;2.47;;;1.83;;
58774;SDS011;44545;47.480;19.024;2024-02-23T11:49:39;4.55;;;2.10;;
58774;SDS011;44545;47.480;19.024;2024-02-23T11:52:41;2.03;;;1.25;;
58774;SDS011;44545;47.480;19.024;2024-02-23T11:55:44;4.62;;;2.55;;
58774;SDS011;44545;47.480;19.024;2024-02-23T11:58:46;3.10;;;1.83;;
58774;SDS011;44545;47.480;19.024;2024-02-23T12:01:50;3.35;;;2.08;;
58774;SDS011;44545;47.480;19.024;2024-02-23T12:04:52;2.35;;;1.60;;
58774;SDS011;44545;47.480;19.024;2024-02-23T12:07:55;2.83;;;1.50;;
58774;SDS011;44545;47.480;19.024;2024-02-23T12:10:58;2.10;;;1.30;;
58774;SDS011;44545;47.480;19.024;2024-02-23T12:14:04;9.13;;;2.05;;
58774;SDS011;44545;47.480;19.024;2024-02-23T12:17:11;3.33;;;2.05;;
58774;SDS011;44545;47.480;19.024;2024-02-23T12:20:13;4.35;;;1.60;;
58774;SDS011;44545;47.480;19.024;2024-02-23T12:23:16;1.80;;;1.05;;
58774;SDS011;44545;47.480;19.024;2024-02-23T12:26:18;3.80;;;1.80;;
58774;SDS011;44545;47.480;19.024;2024-02-23T12:29:21;2.87;;;1.87;;
58774;SDS011;44545;47.480;19.024;2024-02-23T12:32:24;2.78;;;1.50;;
58774;SDS011;44545;47.480;19.024;2024-02-23T12:35:27;5.10;;;1.85;;
58774;SDS011;44545;47.480;19.024;2024-02-23T12:38:30;3.40;;;1.27;;
58774;SDS011;44545;47.480;19.024;2024-02-23T12:41:33;2.90;;;1.62;;
58774;SDS011;44545;47.480;19.024;2024-02-23T12:44:36;3.17;;;1.37;;
58774;SDS011;44545;47.480;19.024;2024-02-23T12:47:38;2.78;;;1.52;;
58774;SDS011;44545;47.480;19.024;2024-02-23T12:50:41;3.78;;;2.00;;
58774;SDS011;44545;47.480;19.024;2024-02-23T12:53:45;2.05;;;1.42;;
58774;SDS011;44545;47.480;19.024;2024-02-23T12:56:47;8.32;;;1.98;;
58774;SDS011;44545;47.480;19.024;2024-02-23T12:59:50;3.42;;;2.15;;
58774;SDS011;44545;47.480;19.024;2024-02-23T13:02:53;2.78;;;1.35;;
58774;SDS011;44545;47.480;19.024;2024-02-23T13:05:56;3.20;;;1.83;;
58774;SDS011;44545;47.480;19.024;2024-02-23T13:08:59;4.62;;;2.08;;
58774;SDS011;44545;47.480;19.024;2024-02-23T13:12:01;2.75;;;1.58;;
58774;SDS011;44545;47.480;19.024;2024-02-23T13:15:04;5.22;;;2.55;;
58774;SDS011;44545;47.480;19.024;2024-02-23T13:18:07;4.20;;;2.45;;
58774;SDS011;44545;47.480;19.024;2024-02-23T13:21:09;4.68;;;2.85;;
58774;SDS011;44545;47.480;19.024;2024-02-23T13:24:12;4.87;;;2.95;;
58774;SDS011;44545;47.480;19.024;2024-02-23T13:27:14;4.32;;;2.78;;
58774;SDS011;44545;47.480;19.024;2024-02-23T13:30:16;5.00;;;2.33;;
58774;SDS011;44545;47.480;19.024;2024-02-23T13:33:19;4.07;;;2.85;;
58774;SDS011;44545;47.480;19.024;2024-02-23T13:36:23;6.53;;;3.17;;
58774;SDS011;44545;47.480;19.024;2024-02-23T13:39:25;2.78;;;1.62;;
58774;SDS011;44545;47.480;19.024;2024-02-23T13:42:27;3.60;;;2.42;;
58774;SDS011;44545;47.480;19.024;2024-02-23T13:45:30;14.93;;;2.95;;
58774;SDS011;44545;47.480;19.024;2024-02-23T13:48:32;7.15;;;3.35;;
58774;SDS011;44545;47.480;19.024;2024-02-23T13:51:35;4.95;;;2.78;;
58774;SDS011;44545;47.480;19.024;2024-02-23T13:54:37;2.67;;;1.83;;
58774;SDS011;44545;47.480;19.024;2024-02-23T13:57:39;4.95;;;2.53;;
58774;SDS011;44545;47.480;19.024;2024-02-23T14:00:42;8.38;;;3.50;;
58774;SDS011;44545;47.480;19.024;2024-02-23T14:03:44;7.07;;;3.20;;
58774;SDS011;44545;47.480;19.024;2024-02-23T14:06:47;4.93;;;2.78;;
58774;SDS011;44545;47.480;19.024;2024-02-23T14:09:49;4.47;;;2.92;;
58774;SDS011;44545;47.480;19.024;2024-02-23T14:12:51;4.72;;;3.08;;
58774;SDS011;44545;47.480;19.024;2024-02-23T14:15:54;7.72;;;2.83;;
58774;SDS011;44545;47.480;19.024;2024-02-23T14:18:56;6.22;;;3.15;;
58774;SDS011;44545;47.480;19.024;2024-02-23T14:21:59;4.82;;;2.97;;
58774;SDS011;44545;47.480;19.024;2024-02-23T14:25:01;5.28;;;3.72;;
58774;SDS011;44545;47.480;19.024;2024-02-23T14:28:03;6.03;;;3.58;;
58774;SDS011;44545;47.480;19.024;2024-02-23T14:31:06;8.10;;;3.85;;
58774;SDS011;44545;47.480;19.024;2024-02-23T14:34:08;5.85;;;3.75;;
58774;SDS011;44545;47.480;19.024;2024-02-23T14:37:10;6.05;;;3.35;;
58774;SDS011;44545;47.480;19.024;2024-02-23T14:40:13;6.78;;;3.62;;
58774;SDS011;44545;47.480;19.024;2024-02-23T14:43:16;8.07;;;4.87;;
58774;SDS011;44545;47.480;19.024;2024-02-23T14:46:20;8.75;;;3.12;;
58774;SDS011;44545;47.480;19.024;2024-02-23T14:49:22;3.45;;;2.60;;
58774;SDS011;44545;47.480;19.024;2024-02-23T14:52:24;8.73;;;2.55;;
58774;SDS011;44545;47.480;19.024;2024-02-23T14:55:27;6.75;;;3.58;;
58774;SDS011;44545;47.480;19.024;2024-02-23T14:58:30;5.60;;;3.42;;
58774;SDS011;44545;47.480;19.024;2024-02-23T15:01:32;4.68;;;2.22;;
58774;SDS011;44545;47.480;19.024;2024-02-23T15:04:34;3.83;;;2.55;;
58774;SDS011;44545;47.480;19.024;2024-02-23T15:07:37;14.32;;;2.15;;
58774;SDS011;44545;47.480;19.024;2024-02-23T15:10:39;3.90;;;2.72;;
58774;SDS011;44545;47.480;19.024;2024-02-23T15:13:42;29.37;;;3.87;;
58774;SDS011;44545;47.480;19.024;2024-02-23T15:16:44;6.30;;;3.30;;
58774;SDS011;44545;47.480;19.024;2024-02-23T15:19:47;6.75;;;3.65;;
58774;SDS011;44545;47.480;19.024;2024-02-23T15:22:50;6.78;;;3.10;;
58774;SDS011;44545;47.480;19.024;2024-02-23T15:25:52;7.85;;;4.18;;
58774;SDS011;44545;47.480;19.024;2024-02-23T15:29:08;7.30;;;3.50;;
58774;SDS011;44545;47.480;19.024;2024-02-23T15:32:10;6.12;;;2.62;;
58774;SDS011;44545;47.480;19.024;2024-02-23T15:35:13;4.07;;;2.87;;
58774;SDS011;44545;47.480;19.024;2024-02-23T15:38:15;5.45;;;4.10;;
58774;SDS011;44545;47.480;19.024;2024-02-23T15:41:17;4.93;;;3.30;;
58774;SDS011;44545;47.480;19.024;2024-02-23T15:44:20;6.55;;;3.70;;
58774;SDS011;44545;47.480;19.024;2024-02-23T15:47:23;5.10;;;3.45;;
58774;SDS011;44545;47.480;19.024;2024-02-23T15:50:25;7.75;;;3.33;;
58774;SDS011;44545;47.480;19.024;2024-02-23T15:53:50;5.22;;;3.60;;
58774;SDS011;44545;47.480;19.024;2024-02-23T15:56:52;4.68;;;2.60;;
58774;SDS011;44545;47.480;19.024;2024-02-23T15:59:55;6.45;;;2.60;;
58774;SDS011;44545;47.480;19.024;2024-02-23T16:03:05;3.17;;;2.40;;
58774;SDS011;44545;47.480;19.024;2024-02-23T16:06:08;4.93;;;2.92;;
58774;SDS011;44545;47.480;19.024;2024-02-23T16:09:10;6.03;;;2.53;;
58774;SDS011;44545;47.480;19.024;2024-02-23T16:15:19;4.90;;;2.53;;
58774;SDS011;44545;47.480;19.024;2024-02-23T16:18:21;3.72;;;2.33;;
58774;SDS011;44545;47.480;19.024;2024-02-23T16:21:24;4.57;;;2.22;;
58774;SDS011;44545;47.480;19.024;2024-02-23T16:24:26;3.95;;;2.28;;
